sensor_id;sensor_type;location;lat;lon;timestamp;P1;durP1;ratioP1;P2;durP2;ratioP2
52838;SDS011;39219;53.678;9.856;2023-02-28T00:00:46;11.98;;;6.18;;
52838;SDS011;39219;53.678;9.856;2023-02-28T00:03:12;13.25;;;6.25;;
52838;SDS011;39219;53.678;9.856;2023-02-28T00:05:38;12.93;;;6.55;;
52838;SDS011;39219;53.678;9.856;2023-02-28T00:08:06;14.68;;;6.90;;
52838;SDS011;39219;53.678;9.856;2023-02-28T00:10:33;13.15;;;6.70;;
52838;SDS011;39219;53.678;9.856;2023-02-28T00:13:00;17.15;;;7.07;;
52838;SDS011;39219;53.678;9.856;2023-02-28T00:15:26;12.80;;;6.38;;
52838;SDS011;39219;53.678;9.856;2023-02-28T00:17:54;12.20;;;6.45;;
52838;SDS011;39219;53.678;9.856;2023-02-28T00:20:20;14.45;;;7.20;;
52838;SDS011;39219;53.678;9.856;2023-02-28T00:22:47;12.60;;;6.28;;
52838;SDS011;39219;53.678;9.856;2023-02-28T00:25:15;13.18;;;6.63;;
52838;SDS011;39219;53.678;9.856;2023-02-28T00:27:41;13.63;;;6.78;;
52838;SDS011;39219;53.678;9.856;2023-02-28T00:30:09;15.00;;;7.07;;
52838;SDS011;39219;53.678;9.856;2023-02-28T00:32:36;13.05;;;6.60;;
52838;SDS011;39219;53.678;9.856;2023-02-28T00:35:04;15.07;;;6.55;;
52838;SDS011;39219;53.678;9.856;2023-02-28T00:37:30;15.20;;;6.95;;
52838;SDS011;39219;53.678;9.856;2023-02-28T00:39:57;14.05;;;6.75;;
52838;SDS011;39219;53.678;9.856;2023-02-28T00:42:23;13.85;;;6.93;;
52838;SDS011;39219;53.678;9.856;2023-02-28T00:44:49;14.63;;;6.10;;
52838;SDS011;39219;53.678;9.856;2023-02-28T00:47:16;13.43;;;7.00;;
52838;SDS011;39219;53.678;9.856;2023-02-28T00:49:42;13.45;;;6.20;;
52838;SDS011;39219;53.678;9.856;2023-02-28T00:52:10;12.85;;;6.57;;
52838;SDS011;39219;53.678;9.856;2023-02-28T00:54:36;13.30;;;7.00;;
52838;SDS011;39219;53.678;9.856;2023-02-28T00:57:02;12.18;;;6.55;;
52838;SDS011;39219;53.678;9.856;2023-02-28T00:59:29;14.88;;;6.82;;
52838;SDS011;39219;53.678;9.856;2023-02-28T01:01:55;14.52;;;6.88;;
52838;SDS011;39219;53.678;9.856;2023-02-28T01:04:21;12.77;;;6.40;;
52838;SDS011;39219;53.678;9.856;2023-02-28T01:06:47;12.40;;;6.43;;
52838;SDS011;39219;53.678;9.856;2023-02-28T01:09:15;13.45;;;6.30;;
52838;SDS011;39219;53.678;9.856;2023-02-28T01:11:41;10.77;;;6.13;;
52838;SDS011;39219;53.678;9.856;2023-02-28T01:14:09;11.85;;;6.30;;
52838;SDS011;39219;53.678;9.856;2023-02-28T01:16:37;12.38;;;6.20;;
52838;SDS011;39219;53.678;9.856;2023-02-28T01:19:03;13.68;;;6.38;;
52838;SDS011;39219;53.678;9.856;2023-02-28T01:21:29;12.07;;;6.25;;
52838;SDS011;39219;53.678;9.856;2023-02-28T01:23:56;13.40;;;6.55;;
52838;SDS011;39219;53.678;9.856;2023-02-28T01:26:23;14.63;;;6.45;;
52838;SDS011;39219;53.678;9.856;2023-02-28T01:28:50;15.52;;;6.63;;
52838;SDS011;39219;53.678;9.856;2023-02-28T01:31:17;11.35;;;6.43;;
52838;SDS011;39219;53.678;9.856;2023-02-28T01:33:44;13.07;;;6.30;;
52838;SDS011;39219;53.678;9.856;2023-02-28T01:36:11;15.32;;;6.03;;
52838;SDS011;39219;53.678;9.856;2023-02-28T01:38:38;9.82;;;5.70;;
52838;SDS011;39219;53.678;9.856;2023-02-28T01:41:04;11.52;;;5.78;;
52838;SDS011;39219;53.678;9.856;2023-02-28T01:43:39;11.73;;;5.80;;
52838;SDS011;39219;53.678;9.856;2023-02-28T01:46:18;13.55;;;5.82;;
52838;SDS011;39219;53.678;9.856;2023-02-28T01:48:45;11.38;;;6.07;;
52838;SDS011;39219;53.678;9.856;2023-02-28T01:51:12;11.07;;;6.35;;
52838;SDS011;39219;53.678;9.856;2023-02-28T01:53:41;11.32;;;5.75;;
52838;SDS011;39219;53.678;9.856;2023-02-28T01:56:10;10.85;;;6.25;;
52838;SDS011;39219;53.678;9.856;2023-02-28T01:58:39;10.25;;;5.65;;
52838;SDS011;39219;53.678;9.856;2023-02-28T02:01:05;11.32;;;5.50;;
52838;SDS011;39219;53.678;9.856;2023-02-28T02:03:32;12.25;;;5.95;;
52838;SDS011;39219;53.678;9.856;2023-02-28T02:05:58;12.98;;;6.05;;
52838;SDS011;39219;53.678;9.856;2023-02-28T02:08:26;13.27;;;5.80;;
52838;SDS011;39219;53.678;9.856;2023-02-28T02:10:53;11.48;;;6.25;;
52838;SDS011;39219;53.678;9.856;2023-02-28T02:13:34;11.63;;;5.35;;
52838;SDS011;39219;53.678;9.856;2023-02-28T02:16:07;10.38;;;5.63;;
52838;SDS011;39219;53.678;9.856;2023-02-28T02:18:40;12.90;;;5.95;;
52838;SDS011;39219;53.678;9.856;2023-02-28T02:24:02;10.98;;;5.68;;
52838;SDS011;39219;53.678;9.856;2023-02-28T02:26:43;11.10;;;5.55;;
52838;SDS011;39219;53.678;9.856;2023-02-28T02:29:16;9.80;;;5.38;;
52838;SDS011;39219;53.678;9.856;2023-02-28T02:32:04;11.23;;;5.82;;
52838;SDS011;39219;53.678;9.856;2023-02-28T02:34:44;10.02;;;5.55;;
52838;SDS011;39219;53.678;9.856;2023-02-28T02:37:15;13.90;;;5.68;;
52838;SDS011;39219;53.678;9.856;2023-02-28T02:39:47;11.98;;;5.45;;
52838;SDS011;39219;53.678;9.856;2023-02-28T02:42:15;11.50;;;5.65;;
52838;SDS011;39219;53.678;9.856;2023-02-28T02:44:45;12.52;;;5.45;;
52838;SDS011;39219;53.678;9.856;2023-02-28T02:47:12;9.93;;;5.38;;
52838;SDS011;39219;53.678;9.856;2023-02-28T02:49:39;14.27;;;5.75;;
52838;SDS011;39219;53.678;9.856;2023-02-28T02:52:10;12.63;;;5.65;;
52838;SDS011;39219;53.678;9.856;2023-02-28T02:54:37;14.27;;;5.72;;
52838;SDS011;39219;53.678;9.856;2023-02-28T02:57:05;12.55;;;5.20;;
52838;SDS011;39219;53.678;9.856;2023-02-28T02:59:33;14.10;;;5.55;;
52838;SDS011;39219;53.678;9.856;2023-02-28T03:02:01;12.43;;;5.15;;
52838;SDS011;39219;53.678;9.856;2023-02-28T03:04:30;9.50;;;4.38;;
52838;SDS011;39219;53.678;9.856;2023-02-28T03:06:57;11.18;;;5.05;;
52838;SDS011;39219;53.678;9.856;2023-02-28T03:09:25;9.45;;;4.63;;
52838;SDS011;39219;53.678;9.856;2023-02-28T03:11:52;10.30;;;4.97;;
52838;SDS011;39219;53.678;9.856;2023-02-28T03:14:22;10.77;;;4.90;;
52838;SDS011;39219;53.678;9.856;2023-02-28T03:16:56;9.18;;;4.65;;
52838;SDS011;39219;53.678;9.856;2023-02-28T03:19:33;9.20;;;4.82;;
52838;SDS011;39219;53.678;9.856;2023-02-28T03:22:13;11.05;;;4.82;;
52838;SDS011;39219;53.678;9.856;2023-02-28T03:24:43;9.95;;;4.43;;
52838;SDS011;39219;53.678;9.856;2023-02-28T03:27:12;11.40;;;4.25;;
52838;SDS011;39219;53.678;9.856;2023-02-28T03:29:42;11.63;;;4.78;;
52838;SDS011;39219;53.678;9.856;2023-02-28T03:32:11;8.18;;;3.90;;
52838;SDS011;39219;53.678;9.856;2023-02-28T03:34:42;9.02;;;3.90;;
52838;SDS011;39219;53.678;9.856;2023-02-28T03:37:13;8.38;;;4.22;;
52838;SDS011;39219;53.678;9.856;2023-02-28T03:39:42;8.43;;;4.47;;
52838;SDS011;39219;53.678;9.856;2023-02-28T03:42:11;8.82;;;4.00;;
52838;SDS011;39219;53.678;9.856;2023-02-28T03:44:39;9.60;;;4.30;;
52838;SDS011;39219;53.678;9.856;2023-02-28T03:47:08;8.82;;;4.30;;
52838;SDS011;39219;53.678;9.856;2023-02-28T03:49:36;8.93;;;4.05;;
52838;SDS011;39219;53.678;9.856;2023-02-28T03:52:06;8.43;;;4.20;;
52838;SDS011;39219;53.678;9.856;2023-02-28T03:54:34;10.75;;;4.10;;
52838;SDS011;39219;53.678;9.856;2023-02-28T03:57:04;8.93;;;4.05;;
52838;SDS011;39219;53.678;9.856;2023-02-28T03:59:32;8.10;;;3.55;;
52838;SDS011;39219;53.678;9.856;2023-02-28T04:02:00;9.45;;;4.00;;
52838;SDS011;39219;53.678;9.856;2023-02-28T04:04:26;11.15;;;3.90;;
52838;SDS011;39219;53.678;9.856;2023-02-28T04:06:52;9.65;;;3.95;;
52838;SDS011;39219;53.678;9.856;2023-02-28T04:09:26;8.15;;;3.70;;
52838;SDS011;39219;53.678;9.856;2023-02-28T04:11:52;8.82;;;3.70;;
52838;SDS011;39219;53.678;9.856;2023-02-28T04:14:21;8.63;;;3.45;;
52838;SDS011;39219;53.678;9.856;2023-02-28T04:16:48;8.82;;;3.60;;
52838;SDS011;39219;53.678;9.856;2023-02-28T04:19:15;7.35;;;3.28;;
52838;SDS011;39219;53.678;9.856;2023-02-28T04:21:42;8.80;;;3.80;;
52838;SDS011;39219;53.678;9.856;2023-02-28T04:24:10;8.05;;;3.58;;
52838;SDS011;39219;53.678;9.856;2023-02-28T04:26:39;8.55;;;3.50;;
52838;SDS011;39219;53.678;9.856;2023-02-28T04:29:06;8.38;;;3.63;;
52838;SDS011;39219;53.678;9.856;2023-02-28T04:31:34;9.77;;;3.88;;
52838;SDS011;39219;53.678;9.856;2023-02-28T04:34:00;6.80;;;3.40;;
52838;SDS011;39219;53.678;9.856;2023-02-28T04:36:27;8.13;;;3.50;;
52838;SDS011;39219;53.678;9.856;2023-02-28T04:38:53;10.10;;;3.60;;
52838;SDS011;39219;53.678;9.856;2023-02-28T04:41:19;8.82;;;3.80;;
52838;SDS011;39219;53.678;9.856;2023-02-28T04:43:46;7.20;;;3.70;;
52838;SDS011;39219;53.678;9.856;2023-02-28T04:46:12;7.75;;;3.75;;
52838;SDS011;39219;53.678;9.856;2023-02-28T04:48:40;5.90;;;3.20;;
52838;SDS011;39219;53.678;9.856;2023-02-28T04:51:06;9.48;;;3.72;;
52838;SDS011;39219;53.678;9.856;2023-02-28T04:53:33;8.80;;;4.10;;
52838;SDS011;39219;53.678;9.856;2023-02-28T04:55:59;8.45;;;3.85;;
52838;SDS011;39219;53.678;9.856;2023-02-28T04:58:26;10.40;;;4.07;;
52838;SDS011;39219;53.678;9.856;2023-02-28T05:00:53;10.02;;;3.92;;
52838;SDS011;39219;53.678;9.856;2023-02-28T05:03:19;10.55;;;3.78;;
52838;SDS011;39219;53.678;9.856;2023-02-28T05:05:48;8.88;;;4.30;;
52838;SDS011;39219;53.678;9.856;2023-02-28T05:08:14;10.98;;;4.20;;
52838;SDS011;39219;53.678;9.856;2023-02-28T05:10:40;9.25;;;3.80;;
52838;SDS011;39219;53.678;9.856;2023-02-28T05:13:08;9.18;;;3.75;;
52838;SDS011;39219;53.678;9.856;2023-02-28T05:15:35;8.13;;;3.53;;
52838;SDS011;39219;53.678;9.856;2023-02-28T05:18:01;9.35;;;3.50;;
52838;SDS011;39219;53.678;9.856;2023-02-28T05:20:27;8.70;;;3.53;;
52838;SDS011;39219;53.678;9.856;2023-02-28T05:22:55;9.73;;;4.28;;
52838;SDS011;39219;53.678;9.856;2023-02-28T05:25:22;8.57;;;3.63;;
52838;SDS011;39219;53.678;9.856;2023-02-28T05:27:49;8.50;;;3.72;;
52838;SDS011;39219;53.678;9.856;2023-02-28T05:30:15;7.40;;;3.55;;
52838;SDS011;39219;53.678;9.856;2023-02-28T05:32:42;8.98;;;3.83;;
52838;SDS011;39219;53.678;9.856;2023-02-28T05:35:09;9.88;;;4.10;;
52838;SDS011;39219;53.678;9.856;2023-02-28T05:37:35;8.10;;;3.85;;
52838;SDS011;39219;53.678;9.856;2023-02-28T05:40:04;9.57;;;3.65;;
52838;SDS011;39219;53.678;9.856;2023-02-28T05:42:31;8.80;;;3.83;;
52838;SDS011;39219;53.678;9.856;2023-02-28T05:44:58;10.02;;;3.85;;
52838;SDS011;39219;53.678;9.856;2023-02-28T05:47:24;9.65;;;4.00;;
52838;SDS011;39219;53.678;9.856;2023-02-28T05:49:51;8.77;;;3.80;;
52838;SDS011;39219;53.678;9.856;2023-02-28T05:52:17;7.32;;;3.58;;
52838;SDS011;39219;53.678;9.856;2023-02-28T05:54:43;7.75;;;3.33;;
52838;SDS011;39219;53.678;9.856;2023-02-28T05:57:11;8.63;;;3.53;;
52838;SDS011;39219;53.678;9.856;2023-02-28T05:59:37;8.02;;;3.95;;
52838;SDS011;39219;53.678;9.856;2023-02-28T06:02:04;8.55;;;3.90;;
52838;SDS011;39219;53.678;9.856;2023-02-28T06:04:31;8.93;;;3.72;;
52838;SDS011;39219;53.678;9.856;2023-02-28T06:06:57;8.90;;;3.70;;
52838;SDS011;39219;53.678;9.856;2023-02-28T06:09:23;7.90;;;3.72;;
52838;SDS011;39219;53.678;9.856;2023-02-28T06:11:50;10.10;;;4.05;;
52838;SDS011;39219;53.678;9.856;2023-02-28T06:14:18;10.48;;;4.20;;
52838;SDS011;39219;53.678;9.856;2023-02-28T06:16:44;8.45;;;4.00;;
52838;SDS011;39219;53.678;9.856;2023-02-28T06:19:10;8.68;;;3.83;;
52838;SDS011;39219;53.678;9.856;2023-02-28T06:21:37;10.65;;;4.25;;
52838;SDS011;39219;53.678;9.856;2023-02-28T06:24:04;8.65;;;4.05;;
52838;SDS011;39219;53.678;9.856;2023-02-28T06:26:31;10.43;;;4.03;;
52838;SDS011;39219;53.678;9.856;2023-02-28T06:28:57;7.97;;;3.90;;
52838;SDS011;39219;53.678;9.856;2023-02-28T06:31:26;9.95;;;4.20;;
52838;SDS011;39219;53.678;9.856;2023-02-28T06:33:54;9.50;;;4.13;;
52838;SDS011;39219;53.678;9.856;2023-02-28T06:36:20;8.85;;;4.15;;
52838;SDS011;39219;53.678;9.856;2023-02-28T06:41:28;11.85;;;4.53;;
52838;SDS011;39219;53.678;9.856;2023-02-28T06:43:55;8.85;;;4.32;;
52838;SDS011;39219;53.678;9.856;2023-02-28T06:46:21;10.68;;;5.22;;
52838;SDS011;39219;53.678;9.856;2023-02-28T06:48:49;11.77;;;5.63;;
52838;SDS011;39219;53.678;9.856;2023-02-28T06:51:17;8.32;;;4.10;;
52838;SDS011;39219;53.678;9.856;2023-02-28T06:53:45;8.20;;;4.32;;
52838;SDS011;39219;53.678;9.856;2023-02-28T06:56:12;9.82;;;3.88;;
52838;SDS011;39219;53.678;9.856;2023-02-28T06:58:38;9.45;;;4.20;;
52838;SDS011;39219;53.678;9.856;2023-02-28T07:01:05;8.85;;;4.00;;
52838;SDS011;39219;53.678;9.856;2023-02-28T07:03:32;8.38;;;3.55;;
52838;SDS011;39219;53.678;9.856;2023-02-28T07:05:59;7.63;;;3.70;;
52838;SDS011;39219;53.678;9.856;2023-02-28T07:08:26;9.13;;;3.80;;
52838;SDS011;39219;53.678;9.856;2023-02-28T07:10:53;10.15;;;4.32;;
52838;SDS011;39219;53.678;9.856;2023-02-28T07:13:20;8.23;;;4.15;;
52838;SDS011;39219;53.678;9.856;2023-02-28T07:15:52;8.57;;;4.15;;
52838;SDS011;39219;53.678;9.856;2023-02-28T07:18:18;6.95;;;3.40;;
52838;SDS011;39219;53.678;9.856;2023-02-28T07:20:44;9.07;;;3.30;;
52838;SDS011;39219;53.678;9.856;2023-02-28T07:23:12;7.60;;;3.55;;
52838;SDS011;39219;53.678;9.856;2023-02-28T07:25:38;8.52;;;3.95;;
52838;SDS011;39219;53.678;9.856;2023-02-28T07:28:05;8.50;;;3.97;;
52838;SDS011;39219;53.678;9.856;2023-02-28T07:30:31;10.13;;;4.53;;
52838;SDS011;39219;53.678;9.856;2023-02-28T07:32:57;9.45;;;4.70;;
52838;SDS011;39219;53.678;9.856;2023-02-28T07:35:23;10.93;;;5.10;;
52838;SDS011;39219;53.678;9.856;2023-02-28T07:37:50;9.35;;;4.70;;
52838;SDS011;39219;53.678;9.856;2023-02-28T07:40:18;11.15;;;4.80;;
52838;SDS011;39219;53.678;9.856;2023-02-28T07:42:44;9.82;;;5.05;;
52838;SDS011;39219;53.678;9.856;2023-02-28T07:45:10;10.45;;;4.75;;
52838;SDS011;39219;53.678;9.856;2023-02-28T07:47:37;11.07;;;5.32;;
52838;SDS011;39219;53.678;9.856;2023-02-28T07:50:03;10.05;;;5.20;;
52838;SDS011;39219;53.678;9.856;2023-02-28T07:52:30;9.95;;;4.60;;
52838;SDS011;39219;53.678;9.856;2023-02-28T07:54:57;8.90;;;4.30;;
52838;SDS011;39219;53.678;9.856;2023-02-28T07:57:24;9.05;;;4.57;;
52838;SDS011;39219;53.678;9.856;2023-02-28T07:59:51;8.02;;;4.40;;
52838;SDS011;39219;53.678;9.856;2023-02-28T08:02:17;11.40;;;4.97;;
52838;SDS011;39219;53.678;9.856;2023-02-28T08:04:44;9.13;;;4.82;;
52838;SDS011;39219;53.678;9.856;2023-02-28T08:07:12;11.95;;;5.30;;
52838;SDS011;39219;53.678;9.856;2023-02-28T08:09:38;10.43;;;5.30;;
52838;SDS011;39219;53.678;9.856;2023-02-28T08:12:04;10.48;;;5.07;;
52838;SDS011;39219;53.678;9.856;2023-02-28T08:14:32;9.43;;;5.00;;
52838;SDS011;39219;53.678;9.856;2023-02-28T08:16:59;8.93;;;5.05;;
52838;SDS011;39219;53.678;9.856;2023-02-28T08:19:25;9.95;;;4.88;;
52838;SDS011;39219;53.678;9.856;2023-02-28T08:21:51;9.65;;;4.22;;
52838;SDS011;39219;53.678;9.856;2023-02-28T08:24:17;6.90;;;3.80;;
52838;SDS011;39219;53.678;9.856;2023-02-28T08:26:44;6.55;;;3.67;;
52838;SDS011;39219;53.678;9.856;2023-02-28T08:29:10;9.65;;;4.10;;
52838;SDS011;39219;53.678;9.856;2023-02-28T08:31:38;8.60;;;4.15;;
52838;SDS011;39219;53.678;9.856;2023-02-28T08:34:05;7.47;;;3.92;;
52838;SDS011;39219;53.678;9.856;2023-02-28T08:36:31;8.95;;;3.80;;
52838;SDS011;39219;53.678;9.856;2023-02-28T08:38:57;8.50;;;4.20;;
52838;SDS011;39219;53.678;9.856;2023-02-28T08:41:24;6.07;;;3.60;;
52838;SDS011;39219;53.678;9.856;2023-02-28T08:43:51;6.20;;;3.22;;
52838;SDS011;39219;53.678;9.856;2023-02-28T08:46:18;6.53;;;3.15;;
52838;SDS011;39219;53.678;9.856;2023-02-28T08:48:46;6.57;;;2.83;;
52838;SDS011;39219;53.678;9.856;2023-02-28T08:51:13;6.50;;;2.90;;
52838;SDS011;39219;53.678;9.856;2023-02-28T08:53:41;5.57;;;2.80;;
52838;SDS011;39219;53.678;9.856;2023-02-28T08:56:08;6.05;;;2.70;;
52838;SDS011;39219;53.678;9.856;2023-02-28T08:58:34;4.95;;;2.60;;
52838;SDS011;39219;53.678;9.856;2023-02-28T09:01:06;3.28;;;2.28;;
52838;SDS011;39219;53.678;9.856;2023-02-28T09:03:33;4.63;;;2.38;;
52838;SDS011;39219;53.678;9.856;2023-02-28T09:06:01;3.63;;;2.35;;
52838;SDS011;39219;53.678;9.856;2023-02-28T09:08:28;4.05;;;2.05;;
52838;SDS011;39219;53.678;9.856;2023-02-28T09:10:55;5.93;;;2.60;;
52838;SDS011;39219;53.678;9.856;2023-02-28T09:13:22;4.88;;;2.45;;
52838;SDS011;39219;53.678;9.856;2023-02-28T09:15:49;2.95;;;2.00;;
52838;SDS011;39219;53.678;9.856;2023-02-28T09:18:15;4.45;;;2.42;;
52838;SDS011;39219;53.678;9.856;2023-02-28T09:20:42;5.03;;;2.20;;
52838;SDS011;39219;53.678;9.856;2023-02-28T09:23:10;3.63;;;2.08;;
52838;SDS011;39219;53.678;9.856;2023-02-28T09:25:37;3.00;;;1.88;;
52838;SDS011;39219;53.678;9.856;2023-02-28T09:28:03;4.22;;;1.80;;
52838;SDS011;39219;53.678;9.856;2023-02-28T09:30:30;3.65;;;2.20;;
52838;SDS011;39219;53.678;9.856;2023-02-28T09:32:56;2.10;;;1.30;;
52838;SDS011;39219;53.678;9.856;2023-02-28T09:35:23;2.97;;;1.25;;
52838;SDS011;39219;53.678;9.856;2023-02-28T09:37:51;2.80;;;1.60;;
52838;SDS011;39219;53.678;9.856;2023-02-28T09:40:19;3.90;;;1.13;;
52838;SDS011;39219;53.678;9.856;2023-02-28T09:42:47;4.22;;;1.40;;
52838;SDS011;39219;53.678;9.856;2023-02-28T09:45:16;3.55;;;1.30;;
52838;SDS011;39219;53.678;9.856;2023-02-28T09:47:45;3.22;;;1.50;;
52838;SDS011;39219;53.678;9.856;2023-02-28T09:50:16;3.90;;;1.50;;
52838;SDS011;39219;53.678;9.856;2023-02-28T09:52:43;2.65;;;1.52;;
52838;SDS011;39219;53.678;9.856;2023-02-28T09:55:16;3.10;;;1.83;;
52838;SDS011;39219;53.678;9.856;2023-02-28T09:57:45;7.13;;;2.22;;
52838;SDS011;39219;53.678;9.856;2023-02-28T10:00:13;4.10;;;2.20;;
52838;SDS011;39219;53.678;9.856;2023-02-28T10:02:53;4.70;;;1.95;;
52838;SDS011;39219;53.678;9.856;2023-02-28T10:05:23;4.72;;;2.17;;
52838;SDS011;39219;53.678;9.856;2023-02-28T10:07:55;2.85;;;1.70;;
52838;SDS011;39219;53.678;9.856;2023-02-28T10:12:54;4.53;;;2.08;;
52838;SDS011;39219;53.678;9.856;2023-02-28T10:15:23;3.80;;;1.70;;
52838;SDS011;39219;53.678;9.856;2023-02-28T10:17:51;4.88;;;1.80;;
52838;SDS011;39219;53.678;9.856;2023-02-28T10:20:20;4.05;;;1.95;;
52838;SDS011;39219;53.678;9.856;2023-02-28T10:22:50;4.68;;;2.00;;
52838;SDS011;39219;53.678;9.856;2023-02-28T10:25:18;4.20;;;1.80;;
52838;SDS011;39219;53.678;9.856;2023-02-28T10:27:45;2.95;;;1.67;;
52838;SDS011;39219;53.678;9.856;2023-02-28T10:30:13;3.35;;;1.60;;
52838;SDS011;39219;53.678;9.856;2023-02-28T10:32:39;3.78;;;1.88;;
52838;SDS011;39219;53.678;9.856;2023-02-28T10:35:09;3.63;;;1.77;;
52838;SDS011;39219;53.678;9.856;2023-02-28T10:37:37;2.97;;;1.70;;
52838;SDS011;39219;53.678;9.856;2023-02-28T10:40:05;2.88;;;1.50;;
52838;SDS011;39219;53.678;9.856;2023-02-28T10:42:31;3.80;;;1.80;;
52838;SDS011;39219;53.678;9.856;2023-02-28T10:45:04;2.83;;;1.65;;
52838;SDS011;39219;53.678;9.856;2023-02-28T10:47:32;2.92;;;1.88;;
52838;SDS011;39219;53.678;9.856;2023-02-28T10:49:59;5.38;;;1.95;;
52838;SDS011;39219;53.678;9.856;2023-02-28T10:52:36;4.13;;;1.65;;
52838;SDS011;39219;53.678;9.856;2023-02-28T10:55:18;3.88;;;1.95;;
52838;SDS011;39219;53.678;9.856;2023-02-28T10:57:45;3.00;;;1.75;;
52838;SDS011;39219;53.678;9.856;2023-02-28T11:00:13;2.72;;;1.80;;
52838;SDS011;39219;53.678;9.856;2023-02-28T11:02:41;3.67;;;1.67;;
52838;SDS011;39219;53.678;9.856;2023-02-28T11:05:25;4.32;;;1.90;;
52838;SDS011;39219;53.678;9.856;2023-02-28T11:07:52;3.08;;;1.80;;
52838;SDS011;39219;53.678;9.856;2023-02-28T11:10:20;3.38;;;1.75;;
52838;SDS011;39219;53.678;9.856;2023-02-28T11:12:47;5.25;;;1.92;;
52838;SDS011;39219;53.678;9.856;2023-02-28T11:15:19;4.18;;;1.95;;
52838;SDS011;39219;53.678;9.856;2023-02-28T11:17:53;2.58;;;1.60;;
52838;SDS011;39219;53.678;9.856;2023-02-28T11:20:21;2.72;;;1.92;;
52838;SDS011;39219;53.678;9.856;2023-02-28T11:22:48;3.70;;;1.63;;
52838;SDS011;39219;53.678;9.856;2023-02-28T11:25:16;3.65;;;1.98;;
52838;SDS011;39219;53.678;9.856;2023-02-28T11:27:47;3.38;;;1.90;;
52838;SDS011;39219;53.678;9.856;2023-02-28T11:30:24;5.63;;;1.90;;
52838;SDS011;39219;53.678;9.856;2023-02-28T11:32:50;4.43;;;1.65;;
52838;SDS011;39219;53.678;9.856;2023-02-28T11:35:18;3.05;;;1.90;;
52838;SDS011;39219;53.678;9.856;2023-02-28T11:37:47;3.65;;;2.17;;
52838;SDS011;39219;53.678;9.856;2023-02-28T11:40:13;2.58;;;1.80;;
52838;SDS011;39219;53.678;9.856;2023-02-28T11:42:44;3.20;;;1.80;;
52838;SDS011;39219;53.678;9.856;2023-02-28T11:45:13;3.85;;;1.95;;
52838;SDS011;39219;53.678;9.856;2023-02-28T11:47:44;3.05;;;1.75;;
52838;SDS011;39219;53.678;9.856;2023-02-28T11:50:20;4.88;;;2.10;;
52838;SDS011;39219;53.678;9.856;2023-02-28T11:52:48;2.45;;;1.77;;
52838;SDS011;39219;53.678;9.856;2023-02-28T11:55:18;3.35;;;1.83;;
52838;SDS011;39219;53.678;9.856;2023-02-28T11:57:55;3.25;;;1.92;;
52838;SDS011;39219;53.678;9.856;2023-02-28T12:00:29;4.65;;;1.90;;
52838;SDS011;39219;53.678;9.856;2023-02-28T12:03:00;2.97;;;1.83;;
52838;SDS011;39219;53.678;9.856;2023-02-28T12:05:32;3.78;;;1.98;;
52838;SDS011;39219;53.678;9.856;2023-02-28T12:08:06;3.63;;;1.70;;
52838;SDS011;39219;53.678;9.856;2023-02-28T12:10:37;3.73;;;2.00;;
52838;SDS011;39219;53.678;9.856;2023-02-28T12:13:12;3.53;;;1.98;;
52838;SDS011;39219;53.678;9.856;2023-02-28T12:15:45;2.80;;;2.05;;
52838;SDS011;39219;53.678;9.856;2023-02-28T12:18:21;4.18;;;2.00;;
52838;SDS011;39219;53.678;9.856;2023-02-28T12:20:53;6.00;;;2.20;;
52838;SDS011;39219;53.678;9.856;2023-02-28T12:23:40;4.88;;;2.10;;
52838;SDS011;39219;53.678;9.856;2023-02-28T12:26:12;3.35;;;2.10;;
52838;SDS011;39219;53.678;9.856;2023-02-28T12:28:42;3.60;;;1.80;;
52838;SDS011;39219;53.678;9.856;2023-02-28T12:31:09;3.03;;;2.10;;
52838;SDS011;39219;53.678;9.856;2023-02-28T12:33:39;3.47;;;2.00;;
52838;SDS011;39219;53.678;9.856;2023-02-28T12:36:10;3.75;;;1.85;;
52838;SDS011;39219;53.678;9.856;2023-02-28T12:38:41;4.07;;;1.73;;
52838;SDS011;39219;53.678;9.856;2023-02-28T12:41:10;5.00;;;2.08;;
52838;SDS011;39219;53.678;9.856;2023-02-28T12:43:40;3.33;;;1.90;;
52838;SDS011;39219;53.678;9.856;2023-02-28T12:46:09;4.10;;;2.03;;
52838;SDS011;39219;53.678;9.856;2023-02-28T12:48:37;4.20;;;2.10;;
52838;SDS011;39219;53.678;9.856;2023-02-28T12:51:05;3.58;;;1.92;;
52838;SDS011;39219;53.678;9.856;2023-02-28T12:53:35;5.47;;;2.30;;
52838;SDS011;39219;53.678;9.856;2023-02-28T12:56:08;3.53;;;1.90;;
52838;SDS011;39219;53.678;9.856;2023-02-28T12:58:39;4.70;;;1.95;;
52838;SDS011;39219;53.678;9.856;2023-02-28T13:04:04;4.35;;;2.30;;
52838;SDS011;39219;53.678;9.856;2023-02-28T13:06:36;4.47;;;2.33;;
52838;SDS011;39219;53.678;9.856;2023-02-28T13:09:12;3.90;;;2.35;;
52838;SDS011;39219;53.678;9.856;2023-02-28T13:11:40;4.20;;;2.22;;
52838;SDS011;39219;53.678;9.856;2023-02-28T13:14:16;3.65;;;2.00;;
52838;SDS011;39219;53.678;9.856;2023-02-28T13:16:53;4.57;;;2.20;;
52838;SDS011;39219;53.678;9.856;2023-02-28T13:19:20;3.28;;;2.08;;
52838;SDS011;39219;53.678;9.856;2023-02-28T13:21:48;4.05;;;2.10;;
52838;SDS011;39219;53.678;9.856;2023-02-28T13:27:21;2.90;;;2.20;;
52838;SDS011;39219;53.678;9.856;2023-02-28T13:29:49;5.53;;;2.35;;
52838;SDS011;39219;53.678;9.856;2023-02-28T13:32:27;3.22;;;1.83;;
52838;SDS011;39219;53.678;9.856;2023-02-28T13:37:41;7.53;;;2.08;;
52838;SDS011;39219;53.678;9.856;2023-02-28T13:42:50;4.53;;;1.92;;
52838;SDS011;39219;53.678;9.856;2023-02-28T13:45:21;3.88;;;2.10;;
52838;SDS011;39219;53.678;9.856;2023-02-28T13:47:51;4.30;;;2.03;;
52838;SDS011;39219;53.678;9.856;2023-02-28T13:50:22;4.20;;;2.10;;
52838;SDS011;39219;53.678;9.856;2023-02-28T13:52:52;3.80;;;2.03;;
52838;SDS011;39219;53.678;9.856;2023-02-28T13:55:24;4.07;;;2.30;;
52838;SDS011;39219;53.678;9.856;2023-02-28T13:57:59;7.30;;;2.30;;
52838;SDS011;39219;53.678;9.856;2023-02-28T14:00:34;3.00;;;2.05;;
52838;SDS011;39219;53.678;9.856;2023-02-28T14:03:11;4.25;;;2.03;;
52838;SDS011;39219;53.678;9.856;2023-02-28T14:05:39;4.22;;;2.10;;
52838;SDS011;39219;53.678;9.856;2023-02-28T14:08:06;3.75;;;2.13;;
52838;SDS011;39219;53.678;9.856;2023-02-28T14:10:41;3.53;;;2.07;;
52838;SDS011;39219;53.678;9.856;2023-02-28T14:13:14;5.15;;;2.15;;
52838;SDS011;39219;53.678;9.856;2023-02-28T14:16:03;5.35;;;2.10;;
52838;SDS011;39219;53.678;9.856;2023-02-28T14:18:30;3.53;;;1.70;;
52838;SDS011;39219;53.678;9.856;2023-02-28T14:20:59;3.72;;;2.15;;
52838;SDS011;39219;53.678;9.856;2023-02-28T14:23:33;3.83;;;1.92;;
52838;SDS011;39219;53.678;9.856;2023-02-28T14:26:01;3.72;;;2.20;;
52838;SDS011;39219;53.678;9.856;2023-02-28T14:28:36;4.43;;;2.20;;
52838;SDS011;39219;53.678;9.856;2023-02-28T14:31:08;7.13;;;2.30;;
52838;SDS011;39219;53.678;9.856;2023-02-28T14:33:46;3.63;;;2.40;;
52838;SDS011;39219;53.678;9.856;2023-02-28T14:36:18;5.78;;;2.20;;
52838;SDS011;39219;53.678;9.856;2023-02-28T14:38:46;5.57;;;2.40;;
52838;SDS011;39219;53.678;9.856;2023-02-28T14:41:18;4.32;;;2.28;;
52838;SDS011;39219;53.678;9.856;2023-02-28T14:43:52;4.85;;;2.10;;
52838;SDS011;39219;53.678;9.856;2023-02-28T14:46:20;2.67;;;2.05;;
52838;SDS011;39219;53.678;9.856;2023-02-28T14:48:47;4.88;;;2.60;;
52838;SDS011;39219;53.678;9.856;2023-02-28T14:51:17;4.15;;;2.20;;
52838;SDS011;39219;53.678;9.856;2023-02-28T14:53:44;3.47;;;2.00;;
52838;SDS011;39219;53.678;9.856;2023-02-28T14:56:17;3.05;;;1.73;;
52838;SDS011;39219;53.678;9.856;2023-02-28T14:58:50;7.32;;;2.20;;
52838;SDS011;39219;53.678;9.856;2023-02-28T15:01:19;3.25;;;2.05;;
52838;SDS011;39219;53.678;9.856;2023-02-28T15:03:47;4.20;;;1.83;;
52838;SDS011;39219;53.678;9.856;2023-02-28T15:06:14;3.70;;;2.10;;
52838;SDS011;39219;53.678;9.856;2023-02-28T15:08:42;5.18;;;2.40;;
52838;SDS011;39219;53.678;9.856;2023-02-28T15:11:12;3.85;;;2.25;;